Latest Weather Observations for Narrabri

IDN60801

Issued at 8:33 am EST Sunday 25 September 2016 (issued every 30 minutes, with the page automatically refreshed every 10 minutes)

About weather observations | Map of weather stations | Latest weather observations for NSW | Other Formats
Station Details ID: 054038 Name: NARRABRI AIRPORT AWS Lat: -30.32 Lon: 149.83 Height: 229.02 m
Data from the previous 72 hours. | See also: Recent months at Narrabri
Date/Time
EST
Temp
°C
App
Temp
°C
Dew
Point
°C
Rel
Hum
%
Delta-T
°C
Wind Press
QNH
hPa
Press
MSL
hPa
Rain since
9am
mm
Dir  Spd
km/h
Gust
km/h
Spd
kts
Gust
kts
25/08:30am 14.6 13.5 11.9 84 1.5 SSW 9 11 5 6 1009.7 1009.3 2.8
25/08:00am 15.0 12.1 11.0 77 2.2 N 17 20 9 11 1008.9 1008.5 1.6
25/07:30am 14.3 11.9 11.3 82 1.6 NNE 15 19 8 10 1008.4 1008.0 1.4
25/07:00am 13.5 10.9 10.7 83 1.5 NNE 15 20 8 11 1008.1 1007.7 1.4
25/06:30am 12.8 10.5 10.5 86 1.2 NE 13 17 7 9 1008.4 1008.0 1.4
25/06:00am 12.7 11.3 10.8 88 1.0 NNE 9 11 5 6 1008.7 1008.3 1.4
25/05:30am 12.7 10.5 10.8 88 1.0 NE 13 17 7 9 1008.5 1008.1 1.4
25/05:00am 12.8 11.0 10.9 88 1.0 ENE 11 13 6 7 1008.5 1008.1 1.2
25/04:30am 12.8 11.0 10.9 88 1.0 NE 11 13 6 7 1008.6 1008.2 1.2
25/04:00am 12.8 11.3 10.7 87 1.1 ENE 9 13 5 7 1008.3 1007.9 1.2
25/03:30am 12.9 11.1 10.8 87 1.1 ENE 11 13 6 7 1008.1 1007.7 1.2
25/03:00am 13.1 10.5 10.6 85 1.3 NNE 15 17 8 9 1008.6 1008.2 1.0
25/02:30am 13.6 10.6 10.6 82 1.6 N 17 20 9 11 1009.1 1008.7 0.6
25/02:00am 14.0 12.1 10.4 79 1.9 NNW 11 15 6 8 1009.7 1009.3 0.0
25/01:30am 14.5 12.9 10.1 75 2.3 NNE 9 15 5 8 1009.1 1008.7 0.0
25/01:00am 14.2 12.2 10.0 76 2.2 NE 11 13 6 7 1009.3 1008.9 0.0
25/12:30am 14.1 12.1 10.3 78 2.0 NE 11 13 6 7 1009.9 1009.5 0.0
25/12:00am 14.5 12.9 10.1 75 2.3 NE 9 13 5 7 1010.2 1009.8 0.0
 
Date/Time
EST
Temp
°C
App
Temp
°C
Dew
Point
°C
Rel
Hum
%
Delta-T
°C
Wind Press
QNH
hPa
Press
MSL
hPa
Rain since
9am
mm
Dir  Spd
km/h
Gust
km/h
Spd
kts
Gust
kts
24/11:30pm 14.0 12.1 10.4 79 1.9 ENE 11 13 6 7 1010.2 1009.8 0.0
24/11:00pm 14.2 11.8 10.2 77 2.1 ENE 13 17 7 9 1010.1 1009.7 0.0
24/10:30pm 14.3 12.0 10.3 77 2.1 ENE 13 15 7 8 1010.6 1010.2 0.0
24/10:00pm 14.4 12.0 10.2 76 2.2 ENE 13 13 7 7 1010.7 1010.3 0.0
24/09:30pm 14.1 12.1 10.1 77 2.1 ENE 11 13 6 7 1010.8 1010.4 0.0
24/09:00pm 14.0 12.1 10.4 79 1.9 ENE 11 13 6 7 1010.7 1010.3 0.0
24/08:30pm 14.0 12.6 10.8 81 1.7 NNE 9 11 5 6 1010.9 1010.6 0.0
24/08:00pm 14.5 14.7 10.7 78 2.0 CALM 0 0 0 0 1010.7 1010.3 0.0
24/07:30pm 14.4 13.4 10.4 77 2.1 NNE 6 7 3 4 1010.5 1010.1 0.0
24/07:00pm 13.7 11.9 9.4 75 2.2 NNW 9 11 5 6 1010.0 1009.6 0.0
24/06:30pm 16.1 14.1 10.2 68 3.1 NW 11 13 6 7 1009.8 1009.4 0.0
24/06:00pm 16.6 15.3 10.0 65 3.5 NNW 7 11 4 6 1009.4 1009.0 0.0
24/05:30pm 18.7 17.1 10.3 58 4.5 NW 9 13 5 7 1009.8 1009.4 0.0
24/05:00pm 19.6 17.3 10.6 56 4.9 NW 13 17 7 9 1009.7 1009.3 0.0
24/04:30pm 19.5 17.1 10.0 54 5.1 NW 13 19 7 10 1009.6 1009.2 0.0
24/04:00pm 21.0 17.3 9.3 47 6.3 NNW 19 26 10 14 1009.3 1008.9 0.0
24/03:30pm 21.5 18.6 9.7 47 6.4 NNW 15 22 8 12 1009.2 1008.8 0.0
24/03:00pm 21.4 18.0 9.0 45 6.7 NNW 17 24 9 13 1009.3 1008.9 0.0
24/02:30pm 21.4 18.0 9.0 45 6.7 NNW 17 22 9 12 1009.4 1009.0 0.0
24/02:00pm 21.1 17.5 9.7 48 6.2 NW 19 24 10 13 1010.0 1009.6 0.0
24/01:30pm 21.3 17.5 11.1 52 5.7 W 22 28 12 15 1010.7 1010.3 0.0
24/01:00pm 21.1 18.7 10.0 49 6.1 WNW 13 22 7 12 1010.7 1010.3 0.0
24/12:30pm 20.0 17.9 9.9 52 5.5 NNW 11 15 6 8 1010.9 1010.6 0.0
24/12:00pm 20.1 18.0 9.9 52 5.5 W 11 15 6 8 1011.2 1010.9 0.0
24/11:30am 20.2 19.3 10.6 54 5.3 NNW 6 13 3 7 1012.2 1011.8 0.0
24/11:00am 19.4 17.7 9.9 54 5.1 WNW 9 15 5 8 1012.9 1012.5 0.0
24/10:30am 18.9 17.9 11.0 60 4.3 NW 7 11 4 6 1013.2 1012.8 0.0
24/10:00am 17.8 15.9 10.4 62 4.0 WNW 11 17 6 9 1013.8 1013.4 0.0
24/09:30am 17.1 15.6 11.8 71 2.9 NNW 11 17 6 9 1014.0 1013.6 0.0
24/09:00am 15.3 14.2 10.5 73 2.6 NNW 7 15 4 8 1014.1 1013.7 0.0
24/08:30am 14.4 12.9 10.6 78 2.0 NW 9 13 5 7 1014.1 1013.7 0.0
24/08:00am 12.5 11.4 9.9 84 1.3 NW 6 7 3 4 1014.1 1013.7 0.0
24/07:30am 11.2 9.9 9.3 88 1.0 NNW 6 7 3 4 1013.9 1013.5 0.0
24/07:00am 9.7 9.3 8.1 90 0.8 CALM 0 0 0 0 1013.4 1013.0 0.0
24/06:30am 7.9 6.3 6.4 90 0.7 SW 4 6 2 3 1013.1 1012.7 0.0
24/06:00am 6.9 5.0 5.1 88 0.8 SW 4 6 2 3 1012.8 1012.4 0.0
24/05:30am 7.6 6.7 5.9 89 0.8 CALM 0 0 0 0 1012.4 1012.0 0.0
24/05:00am 7.8 6.9 5.9 88 0.9 CALM 0 0 0 0 1012.4 1012.0 0.0
24/04:30am 8.1 7.2 6.2 88 0.9 CALM 0 0 0 0 1012.3 1011.9 0.0
24/04:00am 9.2 6.9 7.3 88 0.9 E 9 13 5 7 1012.1 1011.7 0.0
24/03:30am 8.9 7.1 7.0 88 0.9 NE 6 7 3 4 1012.1 1011.7 0.0
24/03:00am 8.6 7.4 6.6 87 0.9 N 2 7 1 4 1012.4 1012.0 0.0
24/02:30am 9.7 9.1 7.3 85 1.2 CALM 0 6 0 3 1012.2 1011.8 0.0
24/02:00am 10.1 7.1 7.9 86 1.1 E 13 17 7 9 1012.2 1011.8 0.0
24/01:30am 10.1 7.1 7.9 86 1.1 E 13 15 7 8 1012.4 1012.0 0.0
24/01:00am 10.7 7.8 8.3 85 1.2 ENE 13 15 7 8 1012.5 1012.1 0.0
24/12:30am 10.8 8.0 8.4 85 1.2 E 13 15 7 8 1012.7 1012.3 0.0
24/12:00am 10.7 7.8 8.3 85 1.2 ENE 13 17 7 9 1012.9 1012.5 0.0
 
Date/Time
EST
Temp
°C
App
Temp
°C
Dew
Point
°C
Rel
Hum
%
Delta-T
°C
Wind Press
QNH
hPa
Press
MSL
hPa
Rain since
9am
mm
Dir  Spd
km/h
Gust
km/h
Spd
kts
Gust
kts
23/11:30pm 10.5 7.6 8.1 85 1.2 ENE 13 15 7 8 1013.1 1012.7 0.0
23/11:00pm 11.0 8.2 8.4 84 1.3 ENE 13 13 7 7 1013.2 1012.8 0.0
23/10:30pm 11.5 9.6 8.9 84 1.3 ENE 9 11 5 6 1013.3 1012.9 0.0
23/10:00pm 11.6 9.4 9.2 85 1.2 ENE 11 13 6 7 1013.4 1013.0 0.0
23/09:30pm 11.7 9.4 9.1 84 1.3 ENE 11 13 6 7 1013.5 1013.1 0.0
23/09:00pm 12.2 10.1 9.6 84 1.3 NE 11 13 6 7 1013.6 1013.2 0.0
23/08:30pm 12.2 10.4 9.4 83 1.4 NNE 9 11 5 6 1013.5 1013.1 0.0
23/08:00pm 12.8 11.6 10.2 84 1.4 NNE 7 9 4 5 1013.3 1012.9 0.0
23/07:30pm 12.8 11.1 9.8 82 1.6 NNW 9 11 5 6 1013.0 1012.6 0.0
23/07:00pm 13.1 10.9 9.5 79 1.9 NNW 11 13 6 7 1012.9 1012.5 0.0
23/06:30pm 14.7 13.1 10.1 74 2.4 NNW 9 11 5 6 1012.6 1012.2 0.0
23/06:00pm 15.5 13.5 10.3 71 2.8 NNW 11 13 6 7 1012.3 1011.9 0.0
23/05:30pm 17.6 15.7 10.5 63 3.8 NNW 11 13 6 7 1012.0 1011.6 0.0
23/05:00pm 19.4 17.3 9.9 54 5.1 NNW 11 13 6 7 1011.8 1011.4 0.0
23/04:30pm 20.3 18.3 10.1 52 5.6 WNW 11 15 6 8 1011.7 1011.3 0.0
23/04:00pm 20.4 18.3 9.6 50 5.8 WNW 11 19 6 10 1011.7 1011.3 0.0
23/03:30pm 20.4 17.5 9.6 50 5.8 WNW 15 22 8 12 1011.7 1011.3 0.0
23/03:00pm 20.5 17.9 9.4 49 6.0 WNW 13 20 7 11 1011.9 1011.5 0.0
23/02:30pm 19.7 16.6 8.7 49 5.8 WNW 15 22 8 12 1012.3 1011.9 0.0
23/02:00pm 19.5 17.5 10.0 54 5.1 WNW 11 20 6 11 1012.5 1012.1 0.0
23/01:30pm 19.3 17.6 9.8 54 5.1 W 9 19 5 10 1012.8 1012.4 0.0
23/01:00pm 19.3 16.8 9.8 54 5.1 WNW 13 19 7 10 1013.0 1012.6 0.0
23/12:30pm 18.7 16.1 9.5 55 4.9 NW 13 32 7 17 1013.4 1013.0 0.0
23/12:00pm 17.8 15.2 9.4 58 4.4 W 13 22 7 12 1013.9 1013.5 0.0
23/11:30am 17.5 14.9 9.2 58 4.4 W 13 24 7 13 1014.1 1013.7 0.0
23/11:00am 17.1 16.0 9.8 62 3.9 WNW 6 11 3 6 1014.4 1014.0 0.0
23/10:30am 16.1 14.3 8.1 59 4.1 SW 7 15 4 8 1014.7 1014.4 0.0
23/10:00am 15.7 14.6 8.4 62 3.7 WSW 4 11 2 6 1014.9 1014.6 0.0
23/09:30am 15.0 13.5 8.5 65 3.3 SSE 6 9 3 5 1015.1 1014.8 0.0
23/09:00am 14.1 12.1 8.7 70 2.8 SW 9 13 5 7 1015.3 1015.0 0.0
23/08:30am 13.1 11.5 8.8 75 2.2 SW 7 13 4 7 1015.4 1015.1 0.0
23/08:00am 11.8 10.4 8.8 82 1.5 W 6 9 3 5 1015.3 1015.0 0.0
23/07:30am 10.3 8.8 8.6 89 0.8 NNW 6 7 3 4 1015.3 1015.0 0.0
23/07:00am 8.8 7.1 7.4 91 0.7 N 6 7 3 4 1015.1 1014.8 0.0
23/06:30am 7.1 6.1 5.6 90 0.7 CALM 0 0 0 0 1014.8 1014.5 0.0
23/06:00am 6.3 4.7 4.5 88 0.8 N 2 7 1 4 1014.5 1014.1 0.0
23/05:30am 7.4 5.7 5.7 89 0.8 N 4 6 2 3 1014.1 1013.7 0.0
23/05:00am 7.3 6.2 5.1 86 1.0 CALM 0 0 0 0 1013.7 1013.3 0.0
23/04:30am 8.9 7.8 6.9 87 0.9 SSE 2 6 1 3 1013.5 1013.1 0.0
23/04:00am 9.5 8.9 7.3 86 1.1 CALM 0 0 0 0 1013.4 1013.0 0.0
23/03:30am 9.8 8.1 7.6 86 1.1 ESE 6 7 3 4 1013.5 1013.1 0.0
23/03:00am 10.0 8.3 7.6 85 1.2 SSE 6 7 3 4 1013.6 1013.2 0.0
23/02:30am 9.9 9.4 7.8 87 1.0 CALM 0 6 0 3 1013.7 1013.3 0.0
23/02:00am 9.4 8.5 7.7 89 0.8 SSW 2 9 1 5 1013.9 1013.5 0.0
23/01:30am 8.4 6.8 6.4 87 0.9 ESE 4 7 2 4 1014.1 1013.7 0.0
23/01:00am 7.4 5.9 5.0 85 1.1 SE 2 7 1 4 1014.1 1013.7 0.0
23/12:30am 9.1 7.0 6.5 84 1.2 SSE 7 9 4 5 1014.6 1014.2 0.0
23/12:00am 9.9 7.9 7.2 83 1.3 SSW 7 11 4 6 1014.9 1014.6 0.0
 
Date/Time
EST
Temp
°C
App
Temp
°C
Dew
Point
°C
Rel
Hum
%
Delta-T
°C
Wind Press
QNH
hPa
Press
MSL
hPa
Rain since
9am
mm
Dir  Spd
km/h
Gust
km/h
Spd
kts
Gust
kts
22/11:30pm 9.9 7.2 7.2 83 1.3 SW 11 15 6 8 1014.9 1014.6 0.0
22/11:00pm 10.0 6.9 7.1 82 1.4 WSW 13 15 7 8 1014.9 1014.6 0.0
22/10:30pm 10.4 6.6 7.5 82 1.4 WSW 17 20 9 11 1015.1 1014.8 0.0
22/10:00pm 10.3 7.1 7.0 80 1.6 SW 13 15 7 8 1015.2 1014.9 0.0
22/09:30pm 11.4 8.0 7.5 77 1.9 SW 15 17 8 9 1015.2 1014.9 0.0
22/09:00pm 11.9 9.2 7.4 74 2.2 SW 11 13 6 7 1015.1 1014.8 0.0
22/08:30pm 12.6 10.4 7.9 73 2.3 SW 9 11 5 6 1015.0 1014.7 0.0
22/08:00pm 12.1 9.9 8.0 76 2.0 SW 9 11 5 6 1014.8 1014.5 0.0
22/07:30pm 11.0 9.1 6.7 75 2.1 SW 6 9 3 5 1014.7 1014.4 0.0
22/07:00pm 12.4 10.4 6.9 69 2.7 SSW 7 9 4 5 1014.4 1014.0 0.0
22/06:30pm 13.7 10.5 7.0 64 3.3 SW 13 15 7 8 1014.0 1013.6 0.0
22/06:00pm 14.3 10.3 6.6 60 3.8 WSW 17 20 9 11 1013.7 1013.3 0.0
22/05:30pm 15.7 11.7 6.7 55 4.5 WSW 17 26 9 14 1013.3 1012.9 0.0
22/05:00pm 16.9 11.6 7.0 52 5.0 SW 24 32 13 17 1013.1 1012.7 0.0
22/04:30pm 18.0 12.3 6.8 48 5.6 SW 26 35 14 19 1012.8 1012.4 0.0
22/04:00pm 17.2 11.9 7.0 51 5.1 SW 24 33 13 18 1012.6 1012.2 0.0
22/03:30pm 18.8 14.1 7.6 48 5.8 SW 22 32 12 17 1012.2 1011.8 0.0
22/03:00pm 18.3 11.9 7.1 48 5.7 WSW 30 43 16 23 1012.2 1011.8 0.0
22/02:30pm 17.3 10.7 5.9 47 5.6 SW 30 37 16 20 1012.2 1011.8 0.0
22/02:00pm 19.6 14.5 7.7 46 6.2 SW 24 39 13 21 1012.2 1011.8 0.0
22/01:30pm 18.4 11.7 7.2 48 5.7 WSW 32 41 17 22 1012.3 1011.9 0.0
22/01:00pm 18.0 12.6 8.0 52 5.2 WSW 26 37 14 20 1012.6 1012.2 0.0
22/12:30pm 18.4 14.0 8.9 54 5.0 WSW 22 28 12 15 1012.8 1012.4 0.0
22/12:00pm 18.5 13.7 8.7 53 5.1 WSW 24 33 13 18 1013.2 1012.8 0.0
22/11:30am 17.5 12.4 9.2 58 4.4 W 26 43 14 23 1013.5 1013.1 0.0
22/11:00am 17.3 13.0 9.5 60 4.1 W 22 32 12 17 1013.7 1013.3 0.0
22/10:30am 15.9 12.2 9.3 65 3.4 WSW 19 28 10 15 1013.9 1013.5 0.0
22/10:00am 15.4 12.6 10.0 70 2.9 WSW 15 20 8 11 1014.2 1013.8 0.0
22/09:30am 15.5 12.3 11.1 75 2.4 W 19 24 10 13 1014.5 1014.1 0.0
22/09:13am 15.0 11.8 9.8 71 2.7 W 17 24 9 13 1014.5 1014.1 0.0
22/09:00am 13.9 11.5 9.9 77 2.1 WNW 13 22 7 12 1014.5 1014.1 2.4

Other Formats:

Comma delimited format used in spreadsheet applications
http://www.bom.gov.au/fwo/IDN60801/IDN60801.95734.axf

JavaScript Object Notation format (JSON) in row-major order
http://www.bom.gov.au/fwo/IDN60801/IDN60801.95734.json